createdAt,value
2023-04-14T00:00:37.142Z,4.86
2023-04-14T00:03:04.486Z,4.90
2023-04-14T00:05:32.366Z,4.95
2023-04-14T00:07:59.454Z,4.87
2023-04-14T00:10:26.929Z,4.77
2023-04-14T00:12:55.565Z,4.71
2023-04-14T00:15:22.311Z,4.68
2023-04-14T00:17:49.079Z,4.73
2023-04-14T00:20:16.118Z,4.83
2023-04-14T00:22:42.911Z,4.89
2023-04-14T00:25:09.868Z,4.88
2023-04-14T00:27:36.517Z,4.96
2023-04-14T00:30:03.568Z,4.98
2023-04-14T00:32:30.407Z,4.97
2023-04-14T00:34:57.197Z,4.96
2023-04-14T00:37:24.375Z,5.01
2023-04-14T00:39:50.924Z,5.02
2023-04-14T00:42:17.552Z,5.06
2023-04-14T00:44:44.498Z,5.04
2023-04-14T00:47:11.561Z,5.03
2023-04-14T00:49:38.454Z,4.99
2023-04-14T00:52:05.953Z,4.99
2023-04-14T00:54:34.534Z,4.82
2023-04-14T00:57:02.937Z,4.84
2023-04-14T00:59:30.075Z,4.85
2023-04-14T01:01:57.057Z,4.85
2023-04-14T01:04:24.817Z,4.82
2023-04-14T01:06:54.593Z,4.84
2023-04-14T01:09:21.516Z,4.85
2023-04-14T01:12:16.503Z,4.81
2023-04-14T01:14:55.593Z,4.83
2023-04-14T01:17:39.505Z,4.87
2023-04-14T01:20:17.128Z,4.93
2023-04-14T01:22:49.303Z,4.97
2023-04-14T01:25:34.224Z,4.96
2023-04-14T01:28:29.980Z,4.92
2023-04-14T01:31:15.023Z,4.94
2023-04-14T01:33:44.121Z,4.98
2023-04-14T01:36:13.988Z,4.96
2023-04-14T01:38:42.843Z,4.91
2023-04-14T01:41:12.349Z,4.99
2023-04-14T01:43:42.491Z,4.94
2023-04-14T01:46:13.907Z,4.91
2023-04-14T01:48:44.736Z,4.91
2023-04-14T01:51:13.838Z,4.88
2023-04-14T01:53:43.890Z,4.85
2023-04-14T01:56:12.976Z,4.87
2023-04-14T01:58:42.246Z,4.86
2023-04-14T02:01:09.351Z,4.83
2023-04-14T02:03:37.243Z,4.87
2023-04-14T02:06:05.478Z,4.91
2023-04-14T02:08:33.100Z,4.86
2023-04-14T02:11:02.427Z,4.93
2023-04-14T02:13:30.682Z,4.88
2023-04-14T02:15:59.332Z,4.95
2023-04-14T02:18:28.371Z,4.92
2023-04-14T02:20:57.854Z,4.89
2023-04-14T02:23:24.519Z,4.88
2023-04-14T02:26:13.792Z,4.86
2023-04-14T02:29:00.050Z,4.88
2023-04-14T02:31:30.319Z,4.89
2023-04-14T02:34:00.920Z,4.97
2023-04-14T02:36:43.526Z,4.99
2023-04-14T02:39:15.113Z,4.96
2023-04-14T02:41:44.849Z,4.90
2023-04-14T02:44:21.694Z,4.88
2023-04-14T02:47:03.849Z,4.85
2023-04-14T02:49:40.274Z,4.87
2023-04-14T02:52:09.772Z,4.93
2023-04-14T02:54:40.004Z,4.98
2023-04-14T02:57:07.334Z,4.94
2023-04-14T02:59:34.817Z,4.93
2023-04-14T03:02:05.048Z,4.94
2023-04-14T03:04:34.710Z,4.92
2023-04-14T03:07:03.269Z,4.85
2023-04-14T03:09:30.833Z,4.86
2023-04-14T03:11:58.778Z,4.81
2023-04-14T03:14:27.270Z,4.84
2023-04-14T03:16:54.893Z,4.92
2023-04-14T03:19:23.332Z,4.94
2023-04-14T03:21:51.252Z,4.98
2023-04-14T03:24:24.855Z,5.05
2023-04-14T03:26:57.432Z,5.01
2023-04-14T03:29:31.571Z,5.06
2023-04-14T03:32:01.473Z,5.04
2023-04-14T03:34:31.497Z,5.03
2023-04-14T03:36:59.718Z,5.05
2023-04-14T03:39:29.004Z,5.11
2023-04-14T03:41:57.343Z,5.15
2023-04-14T03:44:26.525Z,5.13
2023-04-14T03:46:54.997Z,5.05
2023-04-14T03:49:24.391Z,5.03
2023-04-14T03:51:53.517Z,4.92
2023-04-14T03:54:23.832Z,4.89
2023-04-14T03:56:52.313Z,4.91
2023-04-14T03:59:22.067Z,4.88
2023-04-14T04:01:49.954Z,4.92
2023-04-14T04:04:18.073Z,4.96
2023-04-14T04:06:45.011Z,4.95
2023-04-14T04:09:15.930Z,4.90
2023-04-14T04:11:44.214Z,4.93
2023-04-14T04:14:13.170Z,4.86
2023-04-14T04:16:43.042Z,4.83
2023-04-14T04:19:14.053Z,4.80
2023-04-14T04:21:43.520Z,4.81
2023-04-14T04:24:12.588Z,4.78
2023-04-14T04:26:39.612Z,4.84
2023-04-14T04:29:07.162Z,4.83
2023-04-14T04:31:34.672Z,4.82
2023-04-14T04:34:03.640Z,4.82
2023-04-14T04:36:31.847Z,4.84
2023-04-14T04:38:59.020Z,4.94
2023-04-14T04:41:28.830Z,4.86
2023-04-14T04:43:56.647Z,4.86
2023-04-14T04:46:55.694Z,4.93
2023-04-14T04:49:22.769Z,4.92
2023-04-14T04:51:49.769Z,4.97
2023-04-14T04:54:16.511Z,4.99
2023-04-14T04:56:43.212Z,5.09
2023-04-14T04:59:10.930Z,5.13
2023-04-14T05:01:37.837Z,5.17
2023-04-14T05:04:04.435Z,5.29
2023-04-14T05:06:34.580Z,5.19
2023-04-14T05:09:01.771Z,5.20
2023-04-14T05:11:28.649Z,5.22
2023-04-14T05:13:55.567Z,5.28
2023-04-14T05:16:22.306Z,5.30
2023-04-14T05:18:49.200Z,5.31
2023-04-14T05:21:16.228Z,5.35
2023-04-14T05:23:44.306Z,5.41
2023-04-14T05:26:39.077Z,5.48
2023-04-14T05:29:01.986Z,5.51
2023-04-14T05:31:28.781Z,5.57
2023-04-14T05:33:55.443Z,5.68
2023-04-14T05:36:22.045Z,5.66
2023-04-14T05:38:48.714Z,5.75
2023-04-14T05:41:15.714Z,5.81
2023-04-14T05:43:42.377Z,5.81
2023-04-14T05:46:08.958Z,5.82
2023-04-14T05:48:37.778Z,5.81
2023-04-14T05:51:04.866Z,5.87
2023-04-14T05:53:31.546Z,5.92
2023-04-14T05:55:58.225Z,5.97
2023-04-14T05:58:26.882Z,5.99
2023-04-14T06:00:53.709Z,6.06
2023-04-14T06:03:20.582Z,6.06
2023-04-14T06:05:48.335Z,6.11
2023-04-14T06:08:15.077Z,6.14
2023-04-14T06:10:41.806Z,6.18
2023-04-14T06:13:08.961Z,6.23
2023-04-14T06:15:35.802Z,6.29
2023-04-14T06:18:02.476Z,6.36
2023-04-14T06:20:32.021Z,6.37
2023-04-14T06:23:01.041Z,6.39
2023-04-14T06:25:27.844Z,6.48
2023-04-14T06:27:54.686Z,6.49
2023-04-14T06:30:21.301Z,6.47
2023-04-14T06:32:51.684Z,6.55
2023-04-14T06:35:32.031Z,6.62
2023-04-14T06:38:00.133Z,6.68
2023-04-14T06:40:27.431Z,6.70
2023-04-14T06:42:54.276Z,6.72
2023-04-14T06:45:21.204Z,6.77
2023-04-14T06:47:48.102Z,6.80
2023-04-14T06:50:14.815Z,6.83
2023-04-14T06:52:41.974Z,6.89
2023-04-14T06:55:09.156Z,6.93
2023-04-14T06:57:35.835Z,7.07
2023-04-14T07:00:04.653Z,7.05
2023-04-14T07:02:31.352Z,7.02
2023-04-14T07:04:58.097Z,7.10
2023-04-14T07:07:24.836Z,7.13
2023-04-14T07:09:52.126Z,7.23
2023-04-14T07:12:18.931Z,7.26
2023-04-14T07:14:52.168Z,7.39
2023-04-14T07:17:20.110Z,7.53
2023-04-14T07:19:47.125Z,7.64
2023-04-14T07:22:13.785Z,7.80
2023-04-14T07:24:40.939Z,7.98
2023-04-14T07:27:07.616Z,8.09
2023-04-14T07:29:35.370Z,8.25
2023-04-14T07:32:02.474Z,8.37
2023-04-14T07:34:29.230Z,8.30
2023-04-14T07:36:55.914Z,8.36
2023-04-14T07:39:23.851Z,8.40
2023-04-14T07:41:50.743Z,8.43
2023-04-14T07:44:17.453Z,8.25
2023-04-14T07:46:44.247Z,8.18
2023-04-14T07:49:11.070Z,8.05
2023-04-14T07:51:38.272Z,8.07
2023-04-14T07:54:06.341Z,8.11
2023-04-14T07:56:33.254Z,8.21
2023-04-14T07:59:00.261Z,8.00
2023-04-14T08:01:27.246Z,8.30
2023-04-14T08:03:54.286Z,8.45
2023-04-14T08:06:21.429Z,8.41
2023-04-14T08:08:48.167Z,8.55
2023-04-14T08:11:14.797Z,8.54
2023-04-14T08:13:42.813Z,8.76
2023-04-14T08:16:09.579Z,8.72
2023-04-14T08:18:37.232Z,8.86
2023-04-14T08:21:04.081Z,8.89
2023-04-14T08:23:30.922Z,9.00
2023-04-14T08:25:57.687Z,9.09
2023-04-14T08:28:24.810Z,9.13
2023-04-14T08:30:51.488Z,8.96
2023-04-14T08:33:18.127Z,9.15
2023-04-14T08:35:44.813Z,9.32
2023-04-14T08:38:11.766Z,9.35
2023-04-14T08:40:43.703Z,9.25
2023-04-14T08:43:13.138Z,9.14
2023-04-14T08:45:42.394Z,8.95
2023-04-14T08:48:12.184Z,8.79
2023-04-14T08:50:49.588Z,8.77
2023-04-14T08:53:18.222Z,8.88
2023-04-14T08:55:45.702Z,8.95
2023-04-14T08:58:12.709Z,8.89
2023-04-14T09:00:40.518Z,8.95
2023-04-14T09:03:09.460Z,8.88
2023-04-14T09:05:36.614Z,8.94
2023-04-14T09:08:04.633Z,8.74
2023-04-14T09:10:32.220Z,8.57
2023-04-14T09:12:58.959Z,8.48
2023-04-14T09:15:29.293Z,8.54
2023-04-14T09:17:56.718Z,8.38
2023-04-14T09:20:38.635Z,8.50
2023-04-14T09:23:12.555Z,8.43
2023-04-14T09:25:40.927Z,8.57
2023-04-14T09:28:08.408Z,8.70
2023-04-14T09:30:35.083Z,8.91
2023-04-14T09:33:08.395Z,8.95
2023-04-14T09:35:46.829Z,9.14
2023-04-14T09:38:13.443Z,9.27
2023-04-14T09:40:43.239Z,9.34
2023-04-14T09:43:22.416Z,9.38
2023-04-14T09:45:49.270Z,9.58
2023-04-14T09:48:16.397Z,9.63
2023-04-14T09:51:03.620Z,9.91
2023-04-14T09:53:35.878Z,10.34
2023-04-14T09:56:06.128Z,10.53
2023-04-14T09:58:34.649Z,10.79
2023-04-14T10:01:05.123Z,10.74
2023-04-14T10:03:40.296Z,10.86
2023-04-14T10:06:16.513Z,11.16
2023-04-14T10:08:51.737Z,11.12
2023-04-14T10:11:21.307Z,11.02
2023-04-14T10:13:49.831Z,10.99
2023-04-14T10:16:17.632Z,11.38
2023-04-14T10:18:44.422Z,11.07
2023-04-14T10:21:11.787Z,11.04
2023-04-14T10:23:39.828Z,11.22
2023-04-14T10:26:10.712Z,11.48
2023-04-14T10:28:43.954Z,11.76
2023-04-14T10:31:39.448Z,12.04
2023-04-14T10:34:14.066Z,12.18
2023-04-14T10:36:41.602Z,12.43
2023-04-14T10:39:10.219Z,12.40
2023-04-14T10:41:42.915Z,12.46
2023-04-14T10:44:24.968Z,12.63
2023-04-14T10:46:52.454Z,12.41
2023-04-14T10:49:19.162Z,12.37
2023-04-14T10:51:49.764Z,12.47
2023-04-14T10:54:19.506Z,12.48
2023-04-14T10:57:12.788Z,12.85
2023-04-14T10:59:43.646Z,13.17
2023-04-14T11:02:28.654Z,13.11
2023-04-14T11:05:13.583Z,13.40
2023-04-14T11:07:49.321Z,13.29
2023-04-14T11:10:24.947Z,13.49
2023-04-14T11:12:56.568Z,13.55
2023-04-14T11:15:23.716Z,14.02
2023-04-14T11:17:51.788Z,14.21
2023-04-14T11:20:25.230Z,13.91
2023-04-14T11:22:54.336Z,13.87
2023-04-14T11:25:27.541Z,13.63
2023-04-14T11:27:54.264Z,13.63
2023-04-14T11:30:21.978Z,13.96
2023-04-14T11:32:57.493Z,14.43
2023-04-14T11:35:26.207Z,14.45
2023-04-14T11:37:57.844Z,14.25
2023-04-14T11:40:26.766Z,14.43
2023-04-14T11:42:55.873Z,14.33
2023-04-14T11:45:23.621Z,15.03
2023-04-14T11:48:04.017Z,15.47
2023-04-14T11:50:33.326Z,14.74
2023-04-14T11:53:00.799Z,15.21
2023-04-14T11:55:28.004Z,15.55
2023-04-14T11:57:55.986Z,15.72
2023-04-14T12:00:23.010Z,16.18
2023-04-14T12:02:50.821Z,15.85
2023-04-14T12:05:25.495Z,15.31
2023-04-14T12:08:00.009Z,14.81
2023-04-14T12:10:27.854Z,14.64
2023-04-14T12:13:08.797Z,14.44
2023-04-14T12:15:38.137Z,14.21
2023-04-14T12:18:09.923Z,14.13
2023-04-14T12:20:47.136Z,13.60
2023-04-14T12:23:15.634Z,12.88
2023-04-14T12:25:42.231Z,11.69
2023-04-14T12:28:09.186Z,10.50
2023-04-14T12:30:37.421Z,9.50
2023-04-14T12:33:14.199Z,9.32
2023-04-14T12:35:41.015Z,8.94
2023-04-14T12:38:14.768Z,8.46
2023-04-14T12:40:44.862Z,8.43
2023-04-14T12:43:16.896Z,8.48
2023-04-14T12:45:48.330Z,8.58
2023-04-14T12:48:18.603Z,8.55
2023-04-14T12:50:45.601Z,8.66
2023-04-14T12:53:26.342Z,8.84
2023-04-14T12:56:24.118Z,9.06
2023-04-14T12:58:51.724Z,9.25
2023-04-14T13:01:21.076Z,9.42
2023-04-14T13:03:56.167Z,9.35
2023-04-14T13:06:24.804Z,9.25
2023-04-14T13:08:55.353Z,9.25
2023-04-14T13:11:23.752Z,9.41
2023-04-14T13:13:52.618Z,9.38
2023-04-14T13:16:20.459Z,9.43
2023-04-14T13:18:49.094Z,9.58
2023-04-14T13:21:16.026Z,9.73
2023-04-14T13:23:45.842Z,9.81
2023-04-14T13:26:15.898Z,9.77
2023-04-14T13:28:42.818Z,9.65
2023-04-14T13:31:11.653Z,9.58
2023-04-14T13:33:38.488Z,9.73
2023-04-14T13:36:05.476Z,9.91
2023-04-14T13:38:32.264Z,10.06
2023-04-14T13:41:02.638Z,10.19
2023-04-14T13:43:30.162Z,10.37
2023-04-14T13:45:58.819Z,10.61
2023-04-14T13:48:26.494Z,10.82
2023-04-14T13:50:54.598Z,10.94
2023-04-14T13:53:21.448Z,11.16
2023-04-14T13:55:48.125Z,11.28
2023-04-14T13:58:15.082Z,11.27
2023-04-14T14:00:42.346Z,11.17
2023-04-14T14:03:09.650Z,11.33
2023-04-14T14:05:36.521Z,11.57
2023-04-14T14:08:03.638Z,11.77
2023-04-14T14:10:30.765Z,11.87
2023-04-14T14:12:57.567Z,11.94
2023-04-14T14:15:24.310Z,11.94
2023-04-14T14:17:53.266Z,12.09
2023-04-14T14:20:20.424Z,12.12
2023-04-14T14:22:47.443Z,12.22
2023-04-14T14:25:20.542Z,12.18
2023-04-14T14:27:48.703Z,12.04
2023-04-14T14:30:16.069Z,11.95
2023-04-14T14:32:42.705Z,12.14
2023-04-14T14:35:09.776Z,12.35
2023-04-14T14:37:36.788Z,12.31
2023-04-14T14:40:04.181Z,12.03
2023-04-14T14:42:31.429Z,12.12
2023-04-14T14:44:58.052Z,12.11
2023-04-14T14:47:25.182Z,12.01
2023-04-14T14:49:59.686Z,12.05
2023-04-14T14:52:31.549Z,11.60
2023-04-14T14:54:58.395Z,11.68
2023-04-14T14:57:25.930Z,11.69
2023-04-14T14:59:53.059Z,11.70
2023-04-14T15:02:22.198Z,11.68
2023-04-14T15:04:49.926Z,11.57
2023-04-14T15:07:16.956Z,11.60
2023-04-14T15:09:46.252Z,11.70
2023-04-14T15:12:13.034Z,11.72
2023-04-14T15:14:39.719Z,11.66
2023-04-14T15:17:06.391Z,11.74
2023-04-14T15:19:33.137Z,11.73
2023-04-14T15:22:01.491Z,11.90
2023-04-14T15:24:28.257Z,11.72
2023-04-14T15:26:54.966Z,11.80
2023-04-14T15:29:25.165Z,11.65
2023-04-14T15:31:52.007Z,11.51
2023-04-14T15:34:18.689Z,11.30
2023-04-14T15:36:45.569Z,11.17
2023-04-14T15:39:12.427Z,11.04
2023-04-14T15:41:39.022Z,10.84
2023-04-14T15:44:05.974Z,10.73
2023-04-14T15:46:32.898Z,10.71
2023-04-14T15:48:59.679Z,10.68
2023-04-14T15:51:26.353Z,10.54
2023-04-14T15:53:53.195Z,10.48
2023-04-14T15:56:23.482Z,10.42
2023-04-14T15:58:50.855Z,10.23
2023-04-14T16:01:17.850Z,10.21
2023-04-14T16:03:44.788Z,10.04
2023-04-14T16:06:11.589Z,9.95
2023-04-14T16:08:38.342Z,9.69
2023-04-14T16:11:05.225Z,9.65
2023-04-14T16:13:31.989Z,9.60
2023-04-14T16:15:58.839Z,9.59
2023-04-14T16:18:25.535Z,9.61
2023-04-14T16:20:52.293Z,9.44
2023-04-14T16:23:19.050Z,9.26
2023-04-14T16:25:51.828Z,9.11
2023-04-14T16:28:18.862Z,9.11
2023-04-14T16:30:46.001Z,9.06
2023-04-14T16:33:13.358Z,9.11
2023-04-14T16:35:40.377Z,9.06
2023-04-14T16:38:08.856Z,9.01
2023-04-14T16:40:54.375Z,9.11
2023-04-14T16:43:21.204Z,9.10
2023-04-14T16:45:47.931Z,9.16
2023-04-14T16:48:14.693Z,9.20
2023-04-14T16:50:42.805Z,9.29
2023-04-14T16:53:09.625Z,9.37
2023-04-14T16:55:36.265Z,9.45
2023-04-14T16:58:03.417Z,9.46
2023-04-14T17:00:30.789Z,9.44
2023-04-14T17:02:57.959Z,9.41
2023-04-14T17:05:24.709Z,9.37
2023-04-14T17:07:51.632Z,9.41
2023-04-14T17:10:18.453Z,9.41
2023-04-14T17:12:46.753Z,9.41
2023-04-14T17:15:13.723Z,9.38
2023-04-14T17:17:40.443Z,9.37
2023-04-14T17:20:07.992Z,9.39
2023-04-14T17:22:34.946Z,9.31
2023-04-14T17:25:04.917Z,9.31
2023-04-14T17:27:32.081Z,9.30
2023-04-14T17:29:59.242Z,9.14
2023-04-14T17:32:26.644Z,9.17
2023-04-14T17:34:53.589Z,9.15
2023-04-14T17:37:20.586Z,9.14
2023-04-14T17:39:49.374Z,9.08
2023-04-14T17:42:16.097Z,9.07
2023-04-14T17:44:42.903Z,9.03
2023-04-14T17:47:15.741Z,8.98
2023-04-14T17:49:43.237Z,8.93
2023-04-14T17:52:11.142Z,8.92
2023-04-14T17:54:37.855Z,8.87
2023-04-14T17:57:04.741Z,8.80
2023-04-14T17:59:31.872Z,8.78
2023-04-14T18:01:58.848Z,8.72
2023-04-14T18:04:25.698Z,8.62
2023-04-14T18:06:53.162Z,8.55
2023-04-14T18:09:19.755Z,8.55
2023-04-14T18:11:46.553Z,8.51
2023-04-14T18:14:13.899Z,8.45
2023-04-14T18:16:40.960Z,8.48
2023-04-14T18:19:07.687Z,8.43
2023-04-14T18:21:34.653Z,8.38
2023-04-14T18:26:30.993Z,8.27
2023-04-14T18:28:57.919Z,8.24
2023-04-14T18:31:25.481Z,8.19
2023-04-14T18:33:52.099Z,8.18
2023-04-14T18:36:18.796Z,8.19
2023-04-14T18:38:45.710Z,8.20
2023-04-14T18:41:12.329Z,8.21
2023-04-14T18:43:39.643Z,8.22
2023-04-14T18:46:06.750Z,8.18
2023-04-14T18:48:33.567Z,8.13
2023-04-14T18:51:02.583Z,8.08
2023-04-14T18:53:29.393Z,8.11
2023-04-14T18:55:56.073Z,8.08
2023-04-14T18:58:23.103Z,8.07
2023-04-14T19:00:49.784Z,8.06
2023-04-14T19:03:17.266Z,8.09
2023-04-14T19:05:44.382Z,8.09
2023-04-14T19:08:11.056Z,8.08
2023-04-14T19:10:37.728Z,8.08
2023-04-14T19:13:04.532Z,8.07
2023-04-14T19:15:31.255Z,8.04
2023-04-14T19:17:57.850Z,7.97
2023-04-14T19:20:24.960Z,7.89
2023-04-14T19:22:51.657Z,7.91
2023-04-14T19:25:18.668Z,7.91
2023-04-14T19:27:45.381Z,7.84
2023-04-14T19:30:12.589Z,7.75
2023-04-14T19:32:39.906Z,7.66
2023-04-14T19:35:07.890Z,7.59
2023-04-14T19:37:35.188Z,7.57
2023-04-14T19:40:03.689Z,7.53
2023-04-14T19:42:30.434Z,7.49
2023-04-14T19:44:57.616Z,7.46
2023-04-14T19:47:24.442Z,7.42
2023-04-14T19:49:52.111Z,7.45
2023-04-14T19:52:22.410Z,7.35
2023-04-14T19:54:50.001Z,7.34
2023-04-14T19:57:16.973Z,7.38
2023-04-14T19:59:44.391Z,7.35
2023-04-14T20:02:13.513Z,7.35
2023-04-14T20:04:40.741Z,7.37
2023-04-14T20:07:07.783Z,7.41
2023-04-14T20:09:34.882Z,7.43
2023-04-14T20:12:02.548Z,7.42
2023-04-14T20:14:29.567Z,7.42
2023-04-14T20:16:56.979Z,7.41
2023-04-14T20:19:24.563Z,7.42
2023-04-14T20:21:51.397Z,7.44
2023-04-14T20:24:18.266Z,7.46
2023-04-14T20:26:45.172Z,7.48
2023-04-14T20:29:12.379Z,7.45
2023-04-14T20:31:39.834Z,7.47
2023-04-14T20:34:06.561Z,7.46
2023-04-14T20:36:36.053Z,7.47
2023-04-14T20:39:06.148Z,7.48
2023-04-14T20:41:33.907Z,7.44
2023-04-14T20:44:00.858Z,7.41
2023-04-14T20:46:28.137Z,7.43
2023-04-14T20:48:54.891Z,7.37
2023-04-14T20:51:21.584Z,7.39
2023-04-14T20:53:48.713Z,7.38
2023-04-14T20:56:15.294Z,7.44
2023-04-14T20:58:41.960Z,7.44
2023-04-14T21:01:09.390Z,7.48
2023-04-14T21:03:36.397Z,7.48
2023-04-14T21:06:03.228Z,7.50
2023-04-14T21:08:29.946Z,7.53
2023-04-14T21:11:15.040Z,7.58
2023-04-14T21:15:30.715Z,7.58
2023-04-14T21:16:30.632Z,7.59
2023-04-14T21:18:57.687Z,7.56
2023-04-14T21:21:24.448Z,7.53
2023-04-14T21:23:51.395Z,7.46
2023-04-14T21:26:19.323Z,7.45
2023-04-14T21:28:46.219Z,7.47
2023-04-14T21:31:13.010Z,7.46
2023-04-14T21:33:41.810Z,7.45
2023-04-14T21:36:09.880Z,7.41
2023-04-14T21:38:37.636Z,7.40
2023-04-14T21:41:04.481Z,7.41
2023-04-14T21:43:31.110Z,7.43
2023-04-14T21:45:57.949Z,7.42
2023-04-14T21:48:24.782Z,7.40
2023-04-14T21:50:51.399Z,7.37
2023-04-14T21:53:18.210Z,7.35
2023-04-14T21:55:44.917Z,7.32
2023-04-14T21:58:11.721Z,7.25
2023-04-14T22:00:38.348Z,7.25
2023-04-14T22:03:05.303Z,7.25
2023-04-14T22:05:32.272Z,7.19
2023-04-14T22:07:58.899Z,7.14
2023-04-14T22:10:32.328Z,7.15
2023-04-14T22:13:03.078Z,7.15
2023-04-14T22:15:29.669Z,7.14
2023-04-14T22:17:56.538Z,7.12
2023-04-14T22:20:23.974Z,7.11
2023-04-14T22:22:50.578Z,7.07
2023-04-14T22:25:17.279Z,7.07
2023-04-14T22:27:43.877Z,7.05
2023-04-14T22:30:11.919Z,7.02
2023-04-14T22:32:38.569Z,7.02
2023-04-14T22:35:05.545Z,7.01
2023-04-14T22:37:32.903Z,7.01
2023-04-14T22:40:02.468Z,7.02
2023-04-14T22:42:29.313Z,6.98
2023-04-14T22:44:55.880Z,6.99
2023-04-14T22:47:22.527Z,6.97
2023-04-14T22:49:49.196Z,6.97
2023-04-14T22:52:15.815Z,6.97
2023-04-14T22:54:42.346Z,6.95
2023-04-14T22:57:10.507Z,6.94
2023-04-14T22:59:38.011Z,6.94
2023-04-14T23:02:04.771Z,6.93
2023-04-14T23:04:31.564Z,6.92
2023-04-14T23:06:58.218Z,6.93
2023-04-14T23:09:25.004Z,6.91
2023-04-14T23:11:52.040Z,6.85
2023-04-14T23:14:18.601Z,6.83
2023-04-14T23:16:45.242Z,6.80
2023-04-14T23:19:12.016Z,6.81
2023-04-14T23:21:39.050Z,6.77
2023-04-14T23:24:06.827Z,6.75
2023-04-14T23:26:33.708Z,6.72
2023-04-14T23:29:01.094Z,6.69
2023-04-14T23:31:28.254Z,6.65
2023-04-14T23:33:55.076Z,6.64
2023-04-14T23:36:22.555Z,6.62
2023-04-14T23:38:49.586Z,6.60
2023-04-14T23:41:17.054Z,6.62
2023-04-14T23:43:44.061Z,6.63
2023-04-14T23:46:10.787Z,6.63
2023-04-14T23:48:37.970Z,6.65
2023-04-14T23:51:19.186Z,6.67
2023-04-14T23:53:47.359Z,6.63
2023-04-14T23:56:14.293Z,6.64
2023-04-14T23:58:41.205Z,6.61
